sensor_id;sensor_type;location;lat;lon;timestamp;P1;durP1;ratioP1;P2;durP2;ratioP2
4963;SDS011;2497;47.410;9.740;2022-09-29T00:01:56;0.90;;;0.80;;
4963;SDS011;2497;47.410;9.740;2022-09-29T00:04:24;1.00;;;0.80;;
4963;SDS011;2497;47.410;9.740;2022-09-29T00:06:53;1.20;;;0.87;;
4963;SDS011;2497;47.410;9.740;2022-09-29T00:09:20;1.40;;;1.00;;
4963;SDS011;2497;47.410;9.740;2022-09-29T00:11:48;0.90;;;0.80;;
4963;SDS011;2497;47.410;9.740;2022-09-29T00:14:19;0.90;;;0.80;;
4963;SDS011;2497;47.410;9.740;2022-09-29T00:16:46;2.47;;;1.50;;
4963;SDS011;2497;47.410;9.740;2022-09-29T00:19:14;1.00;;;0.90;;
4963;SDS011;2497;47.410;9.740;2022-09-29T00:21:41;1.37;;;0.97;;
4963;SDS011;2497;47.410;9.740;2022-09-29T00:24:10;0.90;;;0.80;;
4963;SDS011;2497;47.410;9.740;2022-09-29T00:26:38;1.67;;;1.30;;
4963;SDS011;2497;47.410;9.740;2022-09-29T00:29:05;0.90;;;0.80;;
4963;SDS011;2497;47.410;9.740;2022-09-29T00:31:33;1.10;;;0.90;;
4963;SDS011;2497;47.410;9.740;2022-09-29T00:34:00;1.80;;;0.93;;
4963;SDS011;2497;47.410;9.740;2022-09-29T00:36:28;3.10;;;1.00;;
4963;SDS011;2497;47.410;9.740;2022-09-29T00:38:55;1.20;;;1.00;;
4963;SDS011;2497;47.410;9.740;2022-09-29T00:41:26;0.90;;;0.80;;
4963;SDS011;2497;47.410;9.740;2022-09-29T00:43:56;1.40;;;1.30;;
4963;SDS011;2497;47.410;9.740;2022-09-29T00:46:29;1.00;;;0.73;;
4963;SDS011;2497;47.410;9.740;2022-09-29T00:49:04;1.00;;;0.80;;
4963;SDS011;2497;47.410;9.740;2022-09-29T00:51:34;1.00;;;0.80;;
4963;SDS011;2497;47.410;9.740;2022-09-29T00:54:05;0.90;;;0.80;;
4963;SDS011;2497;47.410;9.740;2022-09-29T00:56:36;0.90;;;0.70;;
4963;SDS011;2497;47.410;9.740;2022-09-29T00:59:11;1.40;;;1.17;;
4963;SDS011;2497;47.410;9.740;2022-09-29T01:01:42;0.93;;;0.80;;
4963;SDS011;2497;47.410;9.740;2022-09-29T01:04:10;0.90;;;0.80;;
4963;SDS011;2497;47.410;9.740;2022-09-29T01:06:41;0.90;;;0.70;;
4963;SDS011;2497;47.410;9.740;2022-09-29T01:09:13;0.90;;;0.70;;
4963;SDS011;2497;47.410;9.740;2022-09-29T01:11:44;0.90;;;0.80;;
4963;SDS011;2497;47.410;9.740;2022-09-29T01:14:12;1.00;;;0.90;;
4963;SDS011;2497;47.410;9.740;2022-09-29T01:16:40;1.50;;;0.90;;
4963;SDS011;2497;47.410;9.740;2022-09-29T01:19:09;1.20;;;0.80;;
4963;SDS011;2497;47.410;9.740;2022-09-29T01:21:44;1.10;;;1.00;;
4963;SDS011;2497;47.410;9.740;2022-09-29T01:24:27;1.70;;;0.97;;
4963;SDS011;2497;47.410;9.740;2022-09-29T01:30:43;1.40;;;1.10;;
4963;SDS011;2497;47.410;9.740;2022-09-29T01:33:22;1.00;;;0.80;;
4963;SDS011;2497;47.410;9.740;2022-09-29T01:36:00;1.63;;;1.53;;
4963;SDS011;2497;47.410;9.740;2022-09-29T01:38:35;0.90;;;0.80;;
4963;SDS011;2497;47.410;9.740;2022-09-29T01:41:22;0.97;;;0.87;;
4963;SDS011;2497;47.410;9.740;2022-09-29T01:44:01;1.20;;;1.10;;
4963;SDS011;2497;47.410;9.740;2022-09-29T01:46:35;1.20;;;1.00;;
4963;SDS011;2497;47.410;9.740;2022-09-29T01:49:05;0.90;;;0.70;;
4963;SDS011;2497;47.410;9.740;2022-09-29T01:51:35;1.00;;;0.87;;
4963;SDS011;2497;47.410;9.740;2022-09-29T01:54:08;1.60;;;1.37;;
4963;SDS011;2497;47.410;9.740;2022-09-29T01:56:40;1.00;;;0.90;;
4963;SDS011;2497;47.410;9.740;2022-09-29T01:59:10;1.00;;;0.90;;
4963;SDS011;2497;47.410;9.740;2022-09-29T02:01:45;1.20;;;1.10;;
4963;SDS011;2497;47.410;9.740;2022-09-29T02:04:16;0.90;;;0.70;;
4963;SDS011;2497;47.410;9.740;2022-09-29T02:06:48;0.90;;;0.70;;
4963;SDS011;2497;47.410;9.740;2022-09-29T02:09:22;1.00;;;0.90;;
4963;SDS011;2497;47.410;9.740;2022-09-29T02:11:53;0.90;;;0.70;;
4963;SDS011;2497;47.410;9.740;2022-09-29T02:14:26;0.97;;;0.73;;
4963;SDS011;2497;47.410;9.740;2022-09-29T02:16:59;1.00;;;0.80;;
4963;SDS011;2497;47.410;9.740;2022-09-29T02:19:32;1.00;;;0.90;;
4963;SDS011;2497;47.410;9.740;2022-09-29T02:22:02;2.37;;;0.87;;
4963;SDS011;2497;47.410;9.740;2022-09-29T02:24:29;0.90;;;0.70;;
4963;SDS011;2497;47.410;9.740;2022-09-29T02:26:57;1.23;;;1.00;;
4963;SDS011;2497;47.410;9.740;2022-09-29T02:29:25;0.93;;;0.80;;
4963;SDS011;2497;47.410;9.740;2022-09-29T02:31:53;1.00;;;0.80;;
4963;SDS011;2497;47.410;9.740;2022-09-29T02:34:27;1.30;;;0.93;;
4963;SDS011;2497;47.410;9.740;2022-09-29T02:37:01;1.00;;;0.80;;
4963;SDS011;2497;47.410;9.740;2022-09-29T02:39:38;1.20;;;0.90;;
4963;SDS011;2497;47.410;9.740;2022-09-29T02:42:17;1.00;;;0.80;;
4963;SDS011;2497;47.410;9.740;2022-09-29T02:44:57;2.40;;;1.00;;
4963;SDS011;2497;47.410;9.740;2022-09-29T02:47:44;1.10;;;0.90;;
4963;SDS011;2497;47.410;9.740;2022-09-29T02:50:33;1.10;;;0.90;;
4963;SDS011;2497;47.410;9.740;2022-09-29T02:53:12;1.20;;;0.90;;
4963;SDS011;2497;47.410;9.740;2022-09-29T02:55:48;1.67;;;0.90;;
4963;SDS011;2497;47.410;9.740;2022-09-29T02:58:24;1.10;;;1.00;;
4963;SDS011;2497;47.410;9.740;2022-09-29T03:00:56;1.10;;;1.00;;
4963;SDS011;2497;47.410;9.740;2022-09-29T03:03:24;1.10;;;0.90;;
4963;SDS011;2497;47.410;9.740;2022-09-29T03:05:54;1.57;;;1.13;;
4963;SDS011;2497;47.410;9.740;2022-09-29T03:08:22;1.20;;;0.90;;
4963;SDS011;2497;47.410;9.740;2022-09-29T03:10:49;2.30;;;0.90;;
4963;SDS011;2497;47.410;9.740;2022-09-29T03:13:18;1.30;;;1.00;;
4963;SDS011;2497;47.410;9.740;2022-09-29T03:15:45;0.90;;;0.70;;
4963;SDS011;2497;47.410;9.740;2022-09-29T03:18:12;1.40;;;1.10;;
4963;SDS011;2497;47.410;9.740;2022-09-29T03:20:40;0.80;;;0.70;;
4963;SDS011;2497;47.410;9.740;2022-09-29T03:23:10;0.90;;;0.80;;
4963;SDS011;2497;47.410;9.740;2022-09-29T03:25:37;1.00;;;0.90;;
4963;SDS011;2497;47.410;9.740;2022-09-29T03:28:05;0.90;;;0.70;;
4963;SDS011;2497;47.410;9.740;2022-09-29T03:30:33;5.50;;;2.00;;
4963;SDS011;2497;47.410;9.740;2022-09-29T03:33:01;2.97;;;1.90;;
4963;SDS011;2497;47.410;9.740;2022-09-29T03:35:28;1.40;;;1.30;;
4963;SDS011;2497;47.410;9.740;2022-09-29T03:37:56;2.13;;;1.80;;
4963;SDS011;2497;47.410;9.740;2022-09-29T03:40:26;2.33;;;1.77;;
4963;SDS011;2497;47.410;9.740;2022-09-29T03:42:54;1.50;;;1.40;;
4963;SDS011;2497;47.410;9.740;2022-09-29T03:45:21;1.40;;;1.30;;
4963;SDS011;2497;47.410;9.740;2022-09-29T03:47:48;1.30;;;1.03;;
4963;SDS011;2497;47.410;9.740;2022-09-29T03:50:16;4.40;;;1.40;;
4963;SDS011;2497;47.410;9.740;2022-09-29T03:52:43;2.10;;;1.63;;
4963;SDS011;2497;47.410;9.740;2022-09-29T03:55:10;1.30;;;1.20;;
4963;SDS011;2497;47.410;9.740;2022-09-29T03:57:40;2.47;;;1.20;;
4963;SDS011;2497;47.410;9.740;2022-09-29T04:00:08;1.17;;;0.97;;
4963;SDS011;2497;47.410;9.740;2022-09-29T04:02:37;1.47;;;1.37;;
4963;SDS011;2497;47.410;9.740;2022-09-29T04:05:05;1.00;;;0.90;;
4963;SDS011;2497;47.410;9.740;2022-09-29T04:07:33;3.10;;;1.40;;
4963;SDS011;2497;47.410;9.740;2022-09-29T04:10:00;1.00;;;0.90;;
4963;SDS011;2497;47.410;9.740;2022-09-29T04:12:27;4.00;;;2.40;;
4963;SDS011;2497;47.410;9.740;2022-09-29T04:14:56;3.43;;;1.20;;
4963;SDS011;2497;47.410;9.740;2022-09-29T04:17:24;3.50;;;1.80;;
4963;SDS011;2497;47.410;9.740;2022-09-29T04:19:52;1.70;;;1.40;;
4963;SDS011;2497;47.410;9.740;2022-09-29T04:22:19;1.60;;;1.50;;
4963;SDS011;2497;47.410;9.740;2022-09-29T04:24:46;4.90;;;2.30;;
4963;SDS011;2497;47.410;9.740;2022-09-29T04:27:14;2.47;;;1.57;;
4963;SDS011;2497;47.410;9.740;2022-09-29T04:29:42;3.47;;;1.63;;
4963;SDS011;2497;47.410;9.740;2022-09-29T04:32:11;1.97;;;1.53;;
4963;SDS011;2497;47.410;9.740;2022-09-29T04:34:39;4.77;;;2.40;;
4963;SDS011;2497;47.410;9.740;2022-09-29T04:37:08;2.70;;;1.53;;
4963;SDS011;2497;47.410;9.740;2022-09-29T04:39:36;4.27;;;1.90;;
4963;SDS011;2497;47.410;9.740;2022-09-29T04:42:03;1.90;;;1.60;;
4963;SDS011;2497;47.410;9.740;2022-09-29T04:44:31;8.00;;;1.60;;
4963;SDS011;2497;47.410;9.740;2022-09-29T04:46:59;4.40;;;1.73;;
4963;SDS011;2497;47.410;9.740;2022-09-29T04:49:28;2.83;;;2.27;;
4963;SDS011;2497;47.410;9.740;2022-09-29T04:51:56;3.10;;;1.73;;
4963;SDS011;2497;47.410;9.740;2022-09-29T04:54:23;3.00;;;1.80;;
4963;SDS011;2497;47.410;9.740;2022-09-29T04:56:51;6.90;;;2.67;;
4963;SDS011;2497;47.410;9.740;2022-09-29T04:59:18;1.93;;;1.83;;
4963;SDS011;2497;47.410;9.740;2022-09-29T05:01:47;1.93;;;1.60;;
4963;SDS011;2497;47.410;9.740;2022-09-29T05:04:15;1.90;;;1.80;;
4963;SDS011;2497;47.410;9.740;2022-09-29T05:06:44;3.17;;;2.40;;
4963;SDS011;2497;47.410;9.740;2022-09-29T05:09:11;3.23;;;1.43;;
4963;SDS011;2497;47.410;9.740;2022-09-29T05:11:39;1.37;;;1.23;;
4963;SDS011;2497;47.410;9.740;2022-09-29T05:14:07;2.30;;;1.83;;
4963;SDS011;2497;47.410;9.740;2022-09-29T05:16:35;3.47;;;2.23;;
4963;SDS011;2497;47.410;9.740;2022-09-29T05:19:02;2.27;;;1.80;;
4963;SDS011;2497;47.410;9.740;2022-09-29T05:21:30;2.40;;;1.60;;
4963;SDS011;2497;47.410;9.740;2022-09-29T05:23:58;4.23;;;2.30;;
4963;SDS011;2497;47.410;9.740;2022-09-29T05:26:27;2.07;;;1.70;;
4963;SDS011;2497;47.410;9.740;2022-09-29T05:28:54;2.70;;;1.37;;
4963;SDS011;2497;47.410;9.740;2022-09-29T05:31:21;1.97;;;1.83;;
4963;SDS011;2497;47.410;9.740;2022-09-29T05:33:49;1.57;;;1.37;;
4963;SDS011;2497;47.410;9.740;2022-09-29T05:36:17;2.67;;;1.37;;
4963;SDS011;2497;47.410;9.740;2022-09-29T05:38:44;2.70;;;2.17;;
4963;SDS011;2497;47.410;9.740;2022-09-29T05:41:14;2.53;;;1.40;;
4963;SDS011;2497;47.410;9.740;2022-09-29T05:43:47;2.77;;;2.00;;
4963;SDS011;2497;47.410;9.740;2022-09-29T05:46:14;2.20;;;1.97;;
4963;SDS011;2497;47.410;9.740;2022-09-29T05:48:44;1.20;;;1.10;;
4963;SDS011;2497;47.410;9.740;2022-09-29T05:51:12;3.53;;;2.00;;
4963;SDS011;2497;47.410;9.740;2022-09-29T05:53:41;5.50;;;1.50;;
4963;SDS011;2497;47.410;9.740;2022-09-29T05:56:09;1.80;;;1.43;;
4963;SDS011;2497;47.410;9.740;2022-09-29T05:58:40;1.70;;;1.50;;
4963;SDS011;2497;47.410;9.740;2022-09-29T06:01:08;2.20;;;2.00;;
4963;SDS011;2497;47.410;9.740;2022-09-29T06:03:37;3.10;;;2.63;;
4963;SDS011;2497;47.410;9.740;2022-09-29T06:06:06;2.00;;;1.73;;
4963;SDS011;2497;47.410;9.740;2022-09-29T06:08:34;4.60;;;2.30;;
4963;SDS011;2497;47.410;9.740;2022-09-29T06:11:03;1.43;;;1.33;;
4963;SDS011;2497;47.410;9.740;2022-09-29T06:13:31;2.23;;;1.57;;
4963;SDS011;2497;47.410;9.740;2022-09-29T06:16:01;1.40;;;1.27;;
4963;SDS011;2497;47.410;9.740;2022-09-29T06:18:28;2.03;;;1.60;;
4963;SDS011;2497;47.410;9.740;2022-09-29T06:20:59;1.93;;;1.60;;
4963;SDS011;2497;47.410;9.740;2022-09-29T06:23:27;3.87;;;1.97;;
4963;SDS011;2497;47.410;9.740;2022-09-29T06:25:55;1.47;;;1.37;;
4963;SDS011;2497;47.410;9.740;2022-09-29T06:28:23;2.70;;;1.50;;
4963;SDS011;2497;47.410;9.740;2022-09-29T06:30:51;6.23;;;1.83;;
4963;SDS011;2497;47.410;9.740;2022-09-29T06:33:21;2.70;;;1.67;;
4963;SDS011;2497;47.410;9.740;2022-09-29T06:35:49;2.63;;;2.43;;
4963;SDS011;2497;47.410;9.740;2022-09-29T06:38:34;1.97;;;1.20;;
4963;SDS011;2497;47.410;9.740;2022-09-29T06:41:02;2.10;;;1.37;;
4963;SDS011;2497;47.410;9.740;2022-09-29T06:43:29;1.67;;;1.10;;
4963;SDS011;2497;47.410;9.740;2022-09-29T06:45:57;1.30;;;1.10;;
4963;SDS011;2497;47.410;9.740;2022-09-29T06:48:25;2.40;;;1.30;;
4963;SDS011;2497;47.410;9.740;2022-09-29T06:50:54;2.80;;;1.40;;
4963;SDS011;2497;47.410;9.740;2022-09-29T06:53:21;3.33;;;1.70;;
4963;SDS011;2497;47.410;9.740;2022-09-29T06:55:53;2.00;;;1.40;;
4963;SDS011;2497;47.410;9.740;2022-09-29T06:58:21;1.50;;;1.30;;
4963;SDS011;2497;47.410;9.740;2022-09-29T07:00:49;1.93;;;1.63;;
4963;SDS011;2497;47.410;9.740;2022-09-29T07:03:16;1.77;;;1.37;;
4963;SDS011;2497;47.410;9.740;2022-09-29T07:05:46;1.33;;;1.20;;
4963;SDS011;2497;47.410;9.740;2022-09-29T07:08:13;1.80;;;1.63;;
4963;SDS011;2497;47.410;9.740;2022-09-29T07:10:41;1.83;;;1.47;;
4963;SDS011;2497;47.410;9.740;2022-09-29T07:13:08;4.70;;;1.97;;
4963;SDS011;2497;47.410;9.740;2022-09-29T07:15:36;2.27;;;2.07;;
4963;SDS011;2497;47.410;9.740;2022-09-29T07:18:04;6.33;;;1.60;;
4963;SDS011;2497;47.410;9.740;2022-09-29T07:20:31;2.20;;;1.77;;
4963;SDS011;2497;47.410;9.740;2022-09-29T07:23:03;3.13;;;1.23;;
4963;SDS011;2497;47.410;9.740;2022-09-29T07:25:30;2.33;;;1.30;;
4963;SDS011;2497;47.410;9.740;2022-09-29T07:27:58;3.33;;;1.60;;
4963;SDS011;2497;47.410;9.740;2022-09-29T07:30:26;2.30;;;1.30;;
4963;SDS011;2497;47.410;9.740;2022-09-29T07:32:55;2.60;;;1.70;;
4963;SDS011;2497;47.410;9.740;2022-09-29T07:35:22;5.20;;;2.33;;
4963;SDS011;2497;47.410;9.740;2022-09-29T07:37:50;1.87;;;1.43;;
4963;SDS011;2497;47.410;9.740;2022-09-29T07:40:20;5.77;;;2.10;;
4963;SDS011;2497;47.410;9.740;2022-09-29T07:42:48;2.23;;;1.27;;
4963;SDS011;2497;47.410;9.740;2022-09-29T07:45:16;3.37;;;1.93;;
4963;SDS011;2497;47.410;9.740;2022-09-29T07:47:44;2.17;;;1.53;;
4963;SDS011;2497;47.410;9.740;2022-09-29T07:50:11;3.00;;;1.60;;
4963;SDS011;2497;47.410;9.740;2022-09-29T07:52:39;2.00;;;1.47;;
4963;SDS011;2497;47.410;9.740;2022-09-29T07:55:06;4.03;;;1.90;;
4963;SDS011;2497;47.410;9.740;2022-09-29T07:57:36;1.87;;;1.57;;
4963;SDS011;2497;47.410;9.740;2022-09-29T08:00:03;1.57;;;1.47;;
4963;SDS011;2497;47.410;9.740;2022-09-29T08:02:31;1.43;;;1.33;;
4963;SDS011;2497;47.410;9.740;2022-09-29T08:04:58;2.13;;;1.90;;
4963;SDS011;2497;47.410;9.740;2022-09-29T08:07:26;3.87;;;1.60;;
4963;SDS011;2497;47.410;9.740;2022-09-29T08:09:54;3.43;;;2.00;;
4963;SDS011;2497;47.410;9.740;2022-09-29T08:12:21;4.13;;;1.83;;
4963;SDS011;2497;47.410;9.740;2022-09-29T08:14:50;2.73;;;2.53;;
4963;SDS011;2497;47.410;9.740;2022-09-29T08:17:18;2.53;;;1.90;;
4963;SDS011;2497;47.410;9.740;2022-09-29T08:19:46;5.00;;;2.30;;
4963;SDS011;2497;47.410;9.740;2022-09-29T08:22:13;4.07;;;2.07;;
4963;SDS011;2497;47.410;9.740;2022-09-29T08:24:40;3.77;;;2.10;;
4963;SDS011;2497;47.410;9.740;2022-09-29T08:27:08;3.37;;;2.43;;
4963;SDS011;2497;47.410;9.740;2022-09-29T08:29:35;1.97;;;1.50;;
4963;SDS011;2497;47.410;9.740;2022-09-29T08:32:04;1.43;;;1.33;;
4963;SDS011;2497;47.410;9.740;2022-09-29T08:34:31;2.50;;;1.27;;
4963;SDS011;2497;47.410;9.740;2022-09-29T08:36:59;4.23;;;2.10;;
4963;SDS011;2497;47.410;9.740;2022-09-29T08:39:27;1.73;;;1.63;;
4963;SDS011;2497;47.410;9.740;2022-09-29T08:41:56;3.00;;;2.13;;
4963;SDS011;2497;47.410;9.740;2022-09-29T08:44:33;3.90;;;1.90;;
4963;SDS011;2497;47.410;9.740;2022-09-29T08:47:12;2.17;;;1.70;;
4963;SDS011;2497;47.410;9.740;2022-09-29T08:49:45;4.10;;;3.03;;
4963;SDS011;2497;47.410;9.740;2022-09-29T08:52:15;5.00;;;2.00;;
4963;SDS011;2497;47.410;9.740;2022-09-29T08:54:46;4.30;;;2.40;;
4963;SDS011;2497;47.410;9.740;2022-09-29T08:57:18;2.03;;;1.83;;
4963;SDS011;2497;47.410;9.740;2022-09-29T08:59:48;2.70;;;1.67;;
4963;SDS011;2497;47.410;9.740;2022-09-29T09:02:25;2.87;;;2.20;;
4963;SDS011;2497;47.410;9.740;2022-09-29T09:05:11;2.47;;;2.03;;
4963;SDS011;2497;47.410;9.740;2022-09-29T09:07:48;3.40;;;1.97;;
4963;SDS011;2497;47.410;9.740;2022-09-29T09:10:25;4.70;;;2.57;;
4963;SDS011;2497;47.410;9.740;2022-09-29T09:13:11;2.33;;;2.13;;
4963;SDS011;2497;47.410;9.740;2022-09-29T09:18:50;2.70;;;1.67;;
4963;SDS011;2497;47.410;9.740;2022-09-29T09:21:31;3.60;;;2.70;;
4963;SDS011;2497;47.410;9.740;2022-09-29T09:24:08;4.70;;;2.17;;
4963;SDS011;2497;47.410;9.740;2022-09-29T09:26:42;1.63;;;1.47;;
4963;SDS011;2497;47.410;9.740;2022-09-29T09:29:13;3.43;;;1.60;;
4963;SDS011;2497;47.410;9.740;2022-09-29T09:31:49;5.83;;;2.27;;
4963;SDS011;2497;47.410;9.740;2022-09-29T09:34:24;1.93;;;1.40;;
4963;SDS011;2497;47.410;9.740;2022-09-29T09:36:55;4.67;;;2.80;;
4963;SDS011;2497;47.410;9.740;2022-09-29T09:39:26;1.83;;;1.40;;
4963;SDS011;2497;47.410;9.740;2022-09-29T09:41:58;1.80;;;1.40;;
4963;SDS011;2497;47.410;9.740;2022-09-29T09:44:31;1.83;;;1.20;;
4963;SDS011;2497;47.410;9.740;2022-09-29T09:47:01;3.47;;;1.30;;
4963;SDS011;2497;47.410;9.740;2022-09-29T09:49:45;0.90;;;0.80;;
4963;SDS011;2497;47.410;9.740;2022-09-29T09:52:17;2.23;;;1.47;;
4963;SDS011;2497;47.410;9.740;2022-09-29T09:54:50;3.23;;;2.23;;
4963;SDS011;2497;47.410;9.740;2022-09-29T10:00:32;1.10;;;0.90;;
4963;SDS011;2497;47.410;9.740;2022-09-29T10:03:05;2.73;;;1.50;;
4963;SDS011;2497;47.410;9.740;2022-09-29T10:05:36;1.87;;;1.47;;
4963;SDS011;2497;47.410;9.740;2022-09-29T10:08:08;1.87;;;1.23;;
4963;SDS011;2497;47.410;9.740;2022-09-29T10:10:39;4.07;;;1.27;;
4963;SDS011;2497;47.410;9.740;2022-09-29T10:13:08;2.13;;;1.37;;
4963;SDS011;2497;47.410;9.740;2022-09-29T10:15:39;2.00;;;1.77;;
4963;SDS011;2497;47.410;9.740;2022-09-29T10:18:14;2.40;;;1.33;;
4963;SDS011;2497;47.410;9.740;2022-09-29T10:20:45;2.60;;;1.80;;
4963;SDS011;2497;47.410;9.740;2022-09-29T10:23:23;1.13;;;1.03;;
4963;SDS011;2497;47.410;9.740;2022-09-29T10:26:05;1.63;;;1.10;;
4963;SDS011;2497;47.410;9.740;2022-09-29T10:28:39;3.63;;;1.40;;
4963;SDS011;2497;47.410;9.740;2022-09-29T10:31:18;2.80;;;1.60;;
4963;SDS011;2497;47.410;9.740;2022-09-29T10:33:49;1.40;;;1.23;;
4963;SDS011;2497;47.410;9.740;2022-09-29T10:36:22;2.03;;;1.60;;
4963;SDS011;2497;47.410;9.740;2022-09-29T10:38:51;1.67;;;1.43;;
4963;SDS011;2497;47.410;9.740;2022-09-29T10:41:18;3.23;;;1.60;;
4963;SDS011;2497;47.410;9.740;2022-09-29T10:43:47;2.50;;;1.30;;
4963;SDS011;2497;47.410;9.740;2022-09-29T10:49:16;1.60;;;1.00;;
4963;SDS011;2497;47.410;9.740;2022-09-29T10:51:52;2.80;;;1.20;;
4963;SDS011;2497;47.410;9.740;2022-09-29T10:54:24;2.70;;;1.30;;
4963;SDS011;2497;47.410;9.740;2022-09-29T10:56:53;1.03;;;0.93;;
4963;SDS011;2497;47.410;9.740;2022-09-29T10:59:23;1.13;;;1.00;;
4963;SDS011;2497;47.410;9.740;2022-09-29T11:01:52;0.90;;;0.80;;
4963;SDS011;2497;47.410;9.740;2022-09-29T11:04:22;1.77;;;1.13;;
4963;SDS011;2497;47.410;9.740;2022-09-29T11:06:53;1.33;;;1.10;;
4963;SDS011;2497;47.410;9.740;2022-09-29T11:09:25;3.13;;;1.53;;
4963;SDS011;2497;47.410;9.740;2022-09-29T11:11:57;1.80;;;1.57;;
4963;SDS011;2497;47.410;9.740;2022-09-29T11:14:27;2.50;;;1.63;;
4963;SDS011;2497;47.410;9.740;2022-09-29T11:16:57;3.10;;;1.83;;
4963;SDS011;2497;47.410;9.740;2022-09-29T11:19:27;3.27;;;1.63;;
4963;SDS011;2497;47.410;9.740;2022-09-29T11:25:13;2.60;;;1.40;;
4963;SDS011;2497;47.410;9.740;2022-09-29T11:28:16;1.43;;;1.00;;
4963;SDS011;2497;47.410;9.740;2022-09-29T11:31:00;2.23;;;1.73;;
4963;SDS011;2497;47.410;9.740;2022-09-29T11:33:38;1.93;;;1.50;;
4963;SDS011;2497;47.410;9.740;2022-09-29T11:36:17;1.40;;;1.20;;
4963;SDS011;2497;47.410;9.740;2022-09-29T11:38:59;1.57;;;1.47;;
4963;SDS011;2497;47.410;9.740;2022-09-29T11:41:46;3.87;;;2.03;;
4963;SDS011;2497;47.410;9.740;2022-09-29T11:44:39;1.73;;;1.50;;
4963;SDS011;2497;47.410;9.740;2022-09-29T11:47:41;2.90;;;1.90;;
4963;SDS011;2497;47.410;9.740;2022-09-29T11:50:30;3.53;;;3.20;;
4963;SDS011;2497;47.410;9.740;2022-09-29T11:53:12;2.60;;;2.40;;
4963;SDS011;2497;47.410;9.740;2022-09-29T11:56:10;2.57;;;1.77;;
4963;SDS011;2497;47.410;9.740;2022-09-29T11:58:49;2.00;;;1.80;;
4963;SDS011;2497;47.410;9.740;2022-09-29T12:01:31;3.70;;;1.87;;
4963;SDS011;2497;47.410;9.740;2022-09-29T12:04:14;4.33;;;1.40;;
4963;SDS011;2497;47.410;9.740;2022-09-29T12:06:55;3.70;;;2.07;;
4963;SDS011;2497;47.410;9.740;2022-09-29T12:12:44;4.13;;;2.30;;
4963;SDS011;2497;47.410;9.740;2022-09-29T12:15:22;2.23;;;1.90;;
4963;SDS011;2497;47.410;9.740;2022-09-29T12:17:55;4.50;;;2.63;;
4963;SDS011;2497;47.410;9.740;2022-09-29T12:20:29;2.50;;;2.13;;
4963;SDS011;2497;47.410;9.740;2022-09-29T12:23:01;2.37;;;1.50;;
4963;SDS011;2497;47.410;9.740;2022-09-29T12:25:33;2.47;;;1.60;;
4963;SDS011;2497;47.410;9.740;2022-09-29T12:28:10;2.77;;;1.57;;
4963;SDS011;2497;47.410;9.740;2022-09-29T12:30:45;3.40;;;1.40;;
4963;SDS011;2497;47.410;9.740;2022-09-29T12:33:18;2.03;;;1.53;;
4963;SDS011;2497;47.410;9.740;2022-09-29T12:35:51;3.50;;;1.70;;
4963;SDS011;2497;47.410;9.740;2022-09-29T12:38:55;1.73;;;1.63;;
4963;SDS011;2497;47.410;9.740;2022-09-29T12:41:30;1.57;;;1.47;;
4963;SDS011;2497;47.410;9.740;2022-09-29T12:44:05;5.20;;;2.13;;
4963;SDS011;2497;47.410;9.740;2022-09-29T12:46:40;1.77;;;1.57;;
4963;SDS011;2497;47.410;9.740;2022-09-29T12:49:13;2.27;;;2.07;;
4963;SDS011;2497;47.410;9.740;2022-09-29T12:51:45;1.73;;;1.30;;
4963;SDS011;2497;47.410;9.740;2022-09-29T12:54:15;3.53;;;2.20;;
4963;SDS011;2497;47.410;9.740;2022-09-29T12:56:50;3.27;;;1.90;;
4963;SDS011;2497;47.410;9.740;2022-09-29T12:59:32;1.70;;;1.27;;
4963;SDS011;2497;47.410;9.740;2022-09-29T13:02:04;2.90;;;2.13;;
4963;SDS011;2497;47.410;9.740;2022-09-29T13:07:56;1.80;;;1.40;;
4963;SDS011;2497;47.410;9.740;2022-09-29T13:10:40;2.40;;;1.53;;
4963;SDS011;2497;47.410;9.740;2022-09-29T13:13:23;2.20;;;1.23;;
4963;SDS011;2497;47.410;9.740;2022-09-29T13:16:13;2.03;;;1.10;;
4963;SDS011;2497;47.410;9.740;2022-09-29T13:19:04;1.20;;;1.10;;
4963;SDS011;2497;47.410;9.740;2022-09-29T13:22:12;3.10;;;1.30;;
4963;SDS011;2497;47.410;9.740;2022-09-29T13:24:53;2.33;;;1.60;;
4963;SDS011;2497;47.410;9.740;2022-09-29T13:27:31;1.80;;;1.27;;
4963;SDS011;2497;47.410;9.740;2022-09-29T13:30:04;2.03;;;1.77;;
4963;SDS011;2497;47.410;9.740;2022-09-29T13:32:41;1.73;;;1.40;;
4963;SDS011;2497;47.410;9.740;2022-09-29T13:35:11;3.23;;;2.30;;
4963;SDS011;2497;47.410;9.740;2022-09-29T13:37:45;3.83;;;1.83;;
4963;SDS011;2497;47.410;9.740;2022-09-29T13:40:17;3.20;;;1.73;;
4963;SDS011;2497;47.410;9.740;2022-09-29T13:42:49;1.57;;;1.47;;
4963;SDS011;2497;47.410;9.740;2022-09-29T13:51:25;3.50;;;1.90;;
4963;SDS011;2497;47.410;9.740;2022-09-29T13:54:18;2.33;;;1.60;;
4963;SDS011;2497;47.410;9.740;2022-09-29T14:03:04;1.73;;;1.30;;
4963;SDS011;2497;47.410;9.740;2022-09-29T14:06:11;1.77;;;1.10;;
4963;SDS011;2497;47.410;9.740;2022-09-29T14:08:42;1.50;;;1.40;;
4963;SDS011;2497;47.410;9.740;2022-09-29T14:11:13;2.40;;;1.97;;
4963;SDS011;2497;47.410;9.740;2022-09-29T14:13:47;2.10;;;1.63;;
4963;SDS011;2497;47.410;9.740;2022-09-29T14:19:32;1.70;;;1.40;;
4963;SDS011;2497;47.410;9.740;2022-09-29T14:22:03;3.43;;;1.53;;
4963;SDS011;2497;47.410;9.740;2022-09-29T14:24:46;2.10;;;1.90;;
4963;SDS011;2497;47.410;9.740;2022-09-29T14:30:14;2.73;;;2.07;;
4963;SDS011;2497;47.410;9.740;2022-09-29T14:32:49;2.40;;;2.13;;
4963;SDS011;2497;47.410;9.740;2022-09-29T14:35:22;2.10;;;1.90;;
4963;SDS011;2497;47.410;9.740;2022-09-29T14:38:01;3.00;;;1.97;;
4963;SDS011;2497;47.410;9.740;2022-09-29T14:40:33;3.10;;;2.10;;
4963;SDS011;2497;47.410;9.740;2022-09-29T14:43:02;1.80;;;1.40;;
4963;SDS011;2497;47.410;9.740;2022-09-29T14:45:30;3.90;;;1.43;;
4963;SDS011;2497;47.410;9.740;2022-09-29T14:48:29;1.33;;;1.23;;
4963;SDS011;2497;47.410;9.740;2022-09-29T14:51:23;2.57;;;1.93;;
4963;SDS011;2497;47.410;9.740;2022-09-29T14:54:15;2.60;;;2.17;;
4963;SDS011;2497;47.410;9.740;2022-09-29T14:56:57;1.97;;;1.77;;
4963;SDS011;2497;47.410;9.740;2022-09-29T14:59:34;3.63;;;2.57;;
4963;SDS011;2497;47.410;9.740;2022-09-29T15:02:18;2.40;;;1.97;;
4963;SDS011;2497;47.410;9.740;2022-09-29T15:04:47;3.40;;;1.77;;
4963;SDS011;2497;47.410;9.740;2022-09-29T15:07:16;4.30;;;1.83;;
4963;SDS011;2497;47.410;9.740;2022-09-29T15:09:46;3.20;;;2.00;;
4963;SDS011;2497;47.410;9.740;2022-09-29T15:12:20;2.40;;;2.20;;
4963;SDS011;2497;47.410;9.740;2022-09-29T15:14:50;2.57;;;1.90;;
4963;SDS011;2497;47.410;9.740;2022-09-29T15:17:26;2.13;;;1.83;;
4963;SDS011;2497;47.410;9.740;2022-09-29T15:20:03;2.13;;;1.43;;
4963;SDS011;2497;47.410;9.740;2022-09-29T15:22:47;6.33;;;3.03;;
4963;SDS011;2497;47.410;9.740;2022-09-29T15:25:39;3.87;;;2.93;;
4963;SDS011;2497;47.410;9.740;2022-09-29T15:28:11;6.00;;;3.53;;
4963;SDS011;2497;47.410;9.740;2022-09-29T15:30:41;3.83;;;2.43;;
4963;SDS011;2497;47.410;9.740;2022-09-29T15:33:16;3.70;;;2.57;;
4963;SDS011;2497;47.410;9.740;2022-09-29T15:35:47;4.10;;;2.73;;
4963;SDS011;2497;47.410;9.740;2022-09-29T15:38:28;3.63;;;2.60;;
4963;SDS011;2497;47.410;9.740;2022-09-29T15:40:59;2.27;;;1.90;;
4963;SDS011;2497;47.410;9.740;2022-09-29T15:43:39;7.97;;;2.93;;
4963;SDS011;2497;47.410;9.740;2022-09-29T15:46:12;3.57;;;2.30;;
4963;SDS011;2497;47.410;9.740;2022-09-29T15:48:57;7.07;;;3.10;;
4963;SDS011;2497;47.410;9.740;2022-09-29T15:51:32;2.80;;;2.50;;
4963;SDS011;2497;47.410;9.740;2022-09-29T15:54:00;4.80;;;2.30;;
4963;SDS011;2497;47.410;9.740;2022-09-29T15:56:29;5.60;;;2.57;;
4963;SDS011;2497;47.410;9.740;2022-09-29T15:58:58;2.70;;;2.20;;
4963;SDS011;2497;47.410;9.740;2022-09-29T16:01:26;2.37;;;1.80;;
4963;SDS011;2497;47.410;9.740;2022-09-29T16:03:54;1.90;;;1.60;;
4963;SDS011;2497;47.410;9.740;2022-09-29T16:06:27;3.17;;;2.10;;
4963;SDS011;2497;47.410;9.740;2022-09-29T16:08:57;4.73;;;2.20;;
4963;SDS011;2497;47.410;9.740;2022-09-29T16:11:29;4.43;;;2.30;;
4963;SDS011;2497;47.410;9.740;2022-09-29T16:14:00;3.73;;;2.83;;
4963;SDS011;2497;47.410;9.740;2022-09-29T16:16:33;3.67;;;2.37;;
4963;SDS011;2497;47.410;9.740;2022-09-29T16:19:08;2.63;;;1.90;;
4963;SDS011;2497;47.410;9.740;2022-09-29T16:21:40;5.07;;;3.00;;
4963;SDS011;2497;47.410;9.740;2022-09-29T16:24:12;2.40;;;2.20;;
4963;SDS011;2497;47.410;9.740;2022-09-29T16:26:44;4.43;;;2.03;;
4963;SDS011;2497;47.410;9.740;2022-09-29T16:29:25;4.13;;;2.03;;